Time;durP1;ratioP1;P1;durP2;ratioP2;P2;SDS_P1;SDS_P2;PMS_P1;PMS_P2;Temp;Humidity;BMP_temperature;BMP_pressure;BME280_temperature;BME280_humidity;BME280_pressure;Samples;Min_cycle;Max_cycle;Signal;HPM_P1;HPM_P2
2023/03/08 00:00:42;;;;;;;;;;;0.70;99.90;;;;;;4920147;29;19927;-72
2023/03/08 00:03:11;;;;;;;;;;;0.70;99.90;;;;;;4930100;29;19982;-71
2023/03/08 00:05:38;;;;;;;;;;;0.70;99.90;;;;;;4919037;29;20349;-71
2023/03/08 00:08:04;;;;;;;;;;;0.70;99.90;;;;;;4931640;29;19927;-68
2023/03/08 00:10:31;;;;;;;;;;;0.70;99.90;;;;;;4931266;29;20366;-71
2023/03/08 00:12:58;;;;;;;;;;;0.80;99.90;;;;;;4924664;29;19927;-69
2023/03/08 00:15:26;;;;;;;;;;;0.80;99.90;;;;;;4917304;29;19931;-70
2023/03/08 00:17:53;;;;;;;;;;;0.80;99.90;;;;;;4928383;29;19927;-69
2023/03/08 00:20:20;;;;;;;;;;;0.70;99.90;;;;;;4924187;29;19930;-70
2023/03/08 00:22:46;;;;;;;;;;;0.80;99.90;;;;;;4929160;29;19927;-70
2023/03/08 00:25:15;;;;;;;;;;;0.80;99.90;;;;;;4923831;29;20314;-67
2023/03/08 00:27:42;;;;;;;;;;;0.80;99.90;;;;;;4926450;29;19927;-70
2023/03/08 00:30:09;;;;;;;;;;;0.90;99.90;;;;;;4924934;29;19927;-70
2023/03/08 00:32:37;;;;;;;;;;;0.90;99.90;;;;;;4929278;29;19927;-69
2023/03/08 00:35:04;;;;;;;;;;;0.90;99.90;;;;;;4929184;29;20021;-68
2023/03/08 00:37:31;;;;;;;;;;;0.90;99.90;;;;;;4926709;29;19931;-71
2023/03/08 00:39:58;;;;;;;;;;;0.90;99.90;;;;;;4928702;29;19934;-70
2023/03/08 00:42:25;;;;;;;;;;;1.00;99.90;;;;;;4923909;29;19927;-68
2023/03/08 00:44:52;;;;;;;;;;;1.00;99.90;;;;;;4925945;29;20398;-69
2023/03/08 00:47:18;;;;;;;;;;;0.90;99.90;;;;;;4921922;29;19949;-69
2023/03/08 00:49:47;;;;;;;;;;;0.90;99.90;;;;;;4925003;29;20425;-69
2023/03/08 00:52:14;;;;;;;;;;;0.90;99.90;;;;;;4929118;29;19927;-69
2023/03/08 00:54:41;;;;;;;;;;;0.90;99.90;;;;;;4944827;28;19930;-69
2023/03/08 00:57:07;;;;;;;;;;;0.90;99.90;;;;;;4923712;29;19927;-70
2023/03/08 00:59:34;;;;;;;;;;;0.90;99.90;;;;;;4924832;29;19926;-69
2023/03/08 01:02:01;;;;;;;;;;;0.90;99.90;;;;;;4921635;29;19931;-69
2023/03/08 01:04:28;;;;;;;;;;;0.90;99.90;;;;;;4924888;29;19930;-70
2023/03/08 01:06:56;;;;;;;;;;;0.90;99.90;;;;;;4927034;29;20343;-69
2023/03/08 01:09:23;;;;;;;;;;;0.90;99.90;;;;;;4930152;29;19927;-69
2023/03/08 01:11:50;;;;;;;;;;;0.90;99.90;;;;;;4924118;29;19934;-68
2023/03/08 01:14:16;;;;;;;;;;;1.00;99.90;;;;;;4930142;29;20382;-69
2023/03/08 01:16:43;;;;;;;;;;;0.90;99.90;;;;;;4926891;29;19935;-69
2023/03/08 01:19:10;;;;;;;;;;;1.00;99.90;;;;;;4930758;29;19938;-69
2023/03/08 01:21:37;;;;;;;;;;;0.90;99.90;;;;;;4924974;29;19938;-71
2023/03/08 01:24:06;;;;;;;;;;;1.00;99.90;;;;;;4930187;29;19927;-68
2023/03/08 01:26:32;;;;;;;;;;;1.00;99.90;;;;;;4923327;29;20425;-68
2023/03/08 01:28:59;;;;;;;;;;;1.00;99.90;;;;;;4927762;29;19927;-71
2023/03/08 01:31:28;;;;;;;;;;;1.00;99.90;;;;;;4929277;29;19962;-72
2023/03/08 01:33:56;;;;;;;;;;;1.00;99.90;;;;;;4931074;29;19930;-69
2023/03/08 01:36:23;;;;;;;;;;;1.00;99.90;;;;;;4933948;29;19934;-69
2023/03/08 01:38:50;;;;;;;;;;;1.00;99.90;;;;;;4923734;29;19933;-70
2023/03/08 01:41:20;;;;;;;;;;;1.00;99.90;;;;;;4936227;29;19927;-69
2023/03/08 01:43:48;;;;;;;;;;;0.90;99.90;;;;;;4931320;29;20314;-69
2023/03/08 01:46:17;;;;;;;;;;;1.00;99.90;;;;;;4932972;29;20404;-69
2023/03/08 01:48:48;;;;;;;;;;;0.90;99.90;;;;;;4927763;29;19962;-69
2023/03/08 01:51:20;;;;;;;;;;;1.00;99.90;;;;;;4936286;29;19927;-69
2023/03/08 01:53:47;;;;;;;;;;;1.00;99.90;;;;;;4924901;29;19931;-69
2023/03/08 01:56:15;;;;;;;;;;;1.00;99.90;;;;;;4923168;29;20339;-71
2023/03/08 01:58:45;;;;;;;;;;;1.00;99.90;;;;;;4924935;29;19933;-69
2023/03/08 02:01:11;;;;;;;;;;;1.00;99.90;;;;;;4928659;29;19931;-70
2023/03/08 02:03:38;;;;;;;;;;;1.00;99.90;;;;;;4933301;29;19926;-67
2023/03/08 02:06:06;;;;;;;;;;;1.00;99.90;;;;;;4931505;29;19927;-67
2023/03/08 02:08:33;;;;;;;;;;;1.00;99.90;;;;;;4928541;29;19985;-70
2023/03/08 02:11:01;;;;;;;;;;;1.00;99.90;;;;;;4924070;29;20379;-70
2023/03/08 02:13:28;;;;;;;;;;;1.00;99.90;;;;;;4929821;29;19934;-70
2023/03/08 02:15:57;;;;;;;;;;;1.00;99.90;;;;;;4926557;29;19974;-70
2023/03/08 02:18:24;;;;;;;;;;;0.90;99.90;;;;;;4929786;29;20414;-69
2023/03/08 02:20:51;;;;;;;;;;;0.90;99.90;;;;;;4935658;29;19948;-69
2023/03/08 02:23:20;;;;;;;;;;;0.90;99.90;;;;;;4935569;29;19933;-70
2023/03/08 02:25:51;;;;;;;;;;;0.90;99.90;;;;;;4930522;29;19926;-69
2023/03/08 02:28:18;;;;;;;;;;;0.90;99.90;;;;;;4938631;29;19926;-71
2023/03/08 02:30:44;;;;;;;;;;;0.90;99.90;;;;;;4930185;29;19927;-69
2023/03/08 02:33:11;;;;;;;;;;;0.90;99.90;;;;;;4926804;29;20460;-70
2023/03/08 02:35:41;;;;;;;;;;;1.00;99.90;;;;;;4927304;29;20035;-70
2023/03/08 02:38:08;;;;;;;;;;;1.00;99.90;;;;;;4927023;29;19949;-70
2023/03/08 02:40:36;;;;;;;;;;;1.00;99.90;;;;;;4932365;29;19930;-70
2023/03/08 02:43:03;;;;;;;;;;;1.00;99.90;;;;;;4930368;29;19927;-69
2023/03/08 02:45:30;;;;;;;;;;;1.00;99.90;;;;;;4926332;29;20018;-69
2023/03/08 02:47:57;;;;;;;;;;;1.00;99.90;;;;;;4927446;29;19991;-69
2023/03/08 02:50:23;;;;;;;;;;;1.00;99.90;;;;;;4945542;28;19927;-69
2023/03/08 02:52:50;;;;;;;;;;;0.90;99.90;;;;;;4925967;29;19934;-69
2023/03/08 02:55:17;;;;;;;;;;;1.00;99.90;;;;;;4934543;29;19927;-69
2023/03/08 02:57:45;;;;;;;;;;;1.00;99.90;;;;;;4933864;29;19927;-69
2023/03/08 03:00:14;;;;;;;;;;;1.00;99.90;;;;;;4931789;29;19952;-69
2023/03/08 03:02:40;;;;;;;;;;;0.90;99.90;;;;;;4944814;28;19926;-69
2023/03/08 03:05:09;;;;;;;;;;;0.90;99.90;;;;;;4937918;28;19933;-67
2023/03/08 03:07:36;;;;;;;;;;;0.90;99.90;;;;;;4921263;29;19978;-69
2023/03/08 03:10:04;;;;;;;;;;;0.90;99.90;;;;;;4922886;29;19931;-69
2023/03/08 03:12:31;;;;;;;;;;;0.90;99.90;;;;;;4926979;29;19978;-69
2023/03/08 03:15:00;;;;;;;;;;;0.90;99.90;;;;;;4924759;29;20014;-69
2023/03/08 03:17:28;;;;;;;;;;;1.00;99.90;;;;;;4927098;29;20009;-69
2023/03/08 03:19:54;;;;;;;;;;;0.90;99.90;;;;;;4943264;28;20295;-69
2023/03/08 03:22:21;;;;;;;;;;;0.90;99.90;;;;;;4938202;29;20021;-69
2023/03/08 03:24:49;;;;;;;;;;;0.90;99.90;;;;;;4933807;29;19931;-69
2023/03/08 03:27:16;;;;;;;;;;;0.90;99.90;;;;;;4930109;28;19927;-69
2023/03/08 03:29:43;;;;;;;;;;;0.90;99.90;;;;;;4950631;28;19930;-70
2023/03/08 03:32:18;;;;;;;;;;;0.90;99.90;;;;;;4929077;29;19927;-69
2023/03/08 03:34:45;;;;;;;;;;;0.90;99.90;;;;;;4917479;29;20322;-69
2023/03/08 03:37:12;;;;;;;;;;;0.90;99.90;;;;;;4922608;29;20029;-69
2023/03/08 03:39:41;;;;;;;;;;;0.80;99.90;;;;;;4948501;28;19926;-69
2023/03/08 03:42:10;;;;;;;;;;;0.80;99.90;;;;;;4920096;29;19934;-69
2023/03/08 03:44:42;;;;;;;;;;;0.80;99.90;;;;;;4930386;29;19927;-70
2023/03/08 03:47:13;;;;;;;;;;;0.80;99.90;;;;;;4920991;29;19932;-69
2023/03/08 03:49:42;;;;;;;;;;;0.90;99.90;;;;;;4930603;29;19927;-69
2023/03/08 03:52:09;;;;;;;;;;;0.90;99.90;;;;;;4929219;29;19927;-69
2023/03/08 03:54:42;;;;;;;;;;;0.80;99.90;;;;;;4922733;29;19927;-68
2023/03/08 03:57:08;;;;;;;;;;;0.80;99.90;;;;;;4923589;29;19927;-69
2023/03/08 03:59:39;;;;;;;;;;;0.90;99.90;;;;;;4930078;29;19933;-69
2023/03/08 04:02:06;;;;;;;;;;;0.90;99.90;;;;;;4929022;29;19927;-69
2023/03/08 04:04:43;;;;;;;;;;;0.90;99.90;;;;;;4922266;29;19927;-69
2023/03/08 04:07:12;;;;;;;;;;;0.90;99.90;;;;;;4927835;29;19931;-69
2023/03/08 04:09:46;;;;;;;;;;;0.90;99.90;;;;;;4921542;29;20408;-68
2023/03/08 04:12:16;;;;;;;;;;;0.80;99.90;;;;;;4923194;29;19935;-69
2023/03/08 04:14:43;;;;;;;;;;;0.90;99.90;;;;;;4924793;29;19938;-70
2023/03/08 04:17:12;;;;;;;;;;;0.80;99.90;;;;;;4923133;29;20439;-69
2023/03/08 04:19:48;;;;;;;;;;;0.80;99.90;;;;;;4921091;29;19938;-69
2023/03/08 04:22:15;;;;;;;;;;;0.80;99.90;;;;;;4929297;29;19927;-69
2023/03/08 04:24:48;;;;;;;;;;;0.80;99.90;;;;;;4944153;28;19930;-68
2023/03/08 04:27:23;;;;;;;;;;;0.80;99.90;;;;;;4925016;29;19934;-69
2023/03/08 04:29:50;;;;;;;;;;;0.80;99.90;;;;;;4919423;29;19933;-69
2023/03/08 04:32:17;;;;;;;;;;;0.80;99.90;;;;;;4924037;29;20354;-69
2023/03/08 04:34:50;;;;;;;;;;;0.70;99.90;;;;;;4916167;29;19970;-70
2023/03/08 04:37:20;;;;;;;;;;;0.80;99.90;;;;;;4924900;28;19953;-68
2023/03/08 04:39:52;;;;;;;;;;;0.80;99.90;;;;;;4949680;28;19934;-69
2023/03/08 04:42:19;;;;;;;;;;;0.80;99.90;;;;;;4928275;29;19934;-69
2023/03/08 04:44:47;;;;;;;;;;;0.80;99.90;;;;;;4922700;29;19927;-69
2023/03/08 04:47:18;;;;;;;;;;;0.80;99.90;;;;;;4922181;29;20477;-70
2023/03/08 04:49:45;;;;;;;;;;;0.80;99.90;;;;;;4921348;29;20406;-70
2023/03/08 04:52:14;;;;;;;;;;;0.80;99.90;;;;;;4916088;29;19946;-69
2023/03/08 04:54:42;;;;;;;;;;;0.80;99.90;;;;;;4921313;29;19937;-69
2023/03/08 04:57:35;;;;;;;;;;;0.80;99.90;;;;;;4926106;29;19934;-69
2023/03/08 05:00:04;;;;;;;;;;;0.80;99.90;;;;;;4933452;29;20298;-70
2023/03/08 05:02:31;;;;;;;;;;;0.80;99.90;;;;;;4926847;29;19927;-69
2023/03/08 05:04:58;;;;;;;;;;;0.70;99.90;;;;;;4918192;29;20014;-69
2023/03/08 05:07:27;;;;;;;;;;;0.70;99.90;;;;;;4920970;29;19931;-67
2023/03/08 05:09:55;;;;;;;;;;;0.70;99.90;;;;;;4929594;29;19962;-70
2023/03/08 05:12:24;;;;;;;;;;;0.70;99.90;;;;;;4923069;29;20010;-69
2023/03/08 05:14:55;;;;;;;;;;;0.70;99.90;;;;;;4925891;29;19931;-69
2023/03/08 05:17:24;;;;;;;;;;;0.70;99.90;;;;;;4922874;29;19934;-69
2023/03/08 05:19:50;;;;;;;;;;;0.70;99.90;;;;;;4922406;29;20303;-69
2023/03/08 05:22:22;;;;;;;;;;;0.70;99.90;;;;;;4929652;29;19926;-69
2023/03/08 05:24:52;;;;;;;;;;;0.70;99.90;;;;;;4929626;29;19966;-69
2023/03/08 05:27:20;;;;;;;;;;;0.70;99.90;;;;;;4924638;29;19931;-69
2023/03/08 05:29:47;;;;;;;;;;;0.70;99.90;;;;;;4965439;28;19966;-68
2023/03/08 05:32:14;;;;;;;;;;;0.70;99.90;;;;;;4926580;29;20370;-69
2023/03/08 05:34:41;;;;;;;;;;;0.60;99.90;;;;;;4922072;29;19927;-68
2023/03/08 05:37:12;;;;;;;;;;;0.60;99.90;;;;;;4939552;28;20271;-69
2023/03/08 05:39:41;;;;;;;;;;;0.60;99.90;;;;;;4966642;28;19930;-69
2023/03/08 05:42:18;;;;;;;;;;;0.60;99.90;;;;;;4926924;29;20451;-67
2023/03/08 05:44:46;;;;;;;;;;;0.60;99.90;;;;;;4929458;29;20384;-67
2023/03/08 05:47:16;;;;;;;;;;;0.60;99.90;;;;;;4925064;29;19931;-69
2023/03/08 05:49:42;;;;;;;;;;;0.60;99.90;;;;;;4932354;29;19933;-70
2023/03/08 05:52:11;;;;;;;;;;;0.60;99.90;;;;;;4931290;29;19958;-69
2023/03/08 05:54:38;;;;;;;;;;;0.60;99.90;;;;;;4960734;28;19956;-69
2023/03/08 05:57:10;;;;;;;;;;;0.60;99.90;;;;;;4930077;29;19926;-69
2023/03/08 05:59:39;;;;;;;;;;;0.60;99.90;;;;;;4959679;28;19934;-70
2023/03/08 06:02:08;;;;;;;;;;;0.60;99.90;;;;;;4930180;29;20452;-69
2023/03/08 06:04:49;;;;;;;;;;;0.60;99.90;;;;;;4926332;29;19969;-70
2023/03/08 06:07:20;;;;;;;;;;;0.60;99.90;;;;;;4933161;29;19933;-71
2023/03/08 06:09:55;;;;;;;;;;;0.60;99.90;;;;;;4928511;29;19927;-69
2023/03/08 06:12:23;;;;;;;;;;;0.60;99.90;;;;;;4930064;29;20299;-69
2023/03/08 06:14:55;;;;;;;;;;;0.60;99.90;;;;;;4932321;29;19935;-68
2023/03/08 06:17:24;;;;;;;;;;;0.60;99.90;;;;;;4924495;29;19927;-68
2023/03/08 06:19:52;;;;;;;;;;;0.60;99.90;;;;;;4928095;29;19935;-70
2023/03/08 06:22:19;;;;;;;;;;;0.60;99.90;;;;;;4962452;28;19933;-67
2023/03/08 06:24:48;;;;;;;;;;;0.60;99.90;;;;;;4923732;29;19928;-68
2023/03/08 06:27:16;;;;;;;;;;;0.60;99.90;;;;;;4928511;29;20017;-68
2023/03/08 06:29:43;;;;;;;;;;;0.60;99.90;;;;;;4924670;29;19927;-68
2023/03/08 06:32:11;;;;;;;;;;;0.60;99.90;;;;;;4936118;29;19934;-68
2023/03/08 06:34:39;;;;;;;;;;;0.60;99.90;;;;;;4930364;29;19957;-68
2023/03/08 06:37:06;;;;;;;;;;;0.60;99.90;;;;;;4927046;29;20026;-68
2023/03/08 06:39:33;;;;;;;;;;;0.60;99.90;;;;;;4928540;29;19927;-68
2023/03/08 06:42:01;;;;;;;;;;;0.60;99.90;;;;;;4928029;29;20003;-68
2023/03/08 06:44:28;;;;;;;;;;;0.60;99.90;;;;;;4927394;29;19927;-69
2023/03/08 06:46:55;;;;;;;;;;;0.60;99.90;;;;;;4926692;29;19935;-69
2023/03/08 06:49:23;;;;;;;;;;;0.70;99.90;;;;;;4934087;29;19927;-70
2023/03/08 06:51:50;;;;;;;;;;;0.70;99.90;;;;;;4926406;29;19927;-70
2023/03/08 06:54:17;;;;;;;;;;;0.80;99.90;;;;;;4923978;29;20422;-68
2023/03/08 06:56:46;;;;;;;;;;;0.80;99.90;;;;;;4931788;29;19982;-68
2023/03/08 06:59:13;;;;;;;;;;;0.80;99.90;;;;;;4927513;29;19934;-69
2023/03/08 07:01:40;;;;;;;;;;;0.90;99.90;;;;;;4930359;29;20390;-69
2023/03/08 07:04:07;;;;;;;;;;;0.90;99.90;;;;;;4933614;29;19934;-70
2023/03/08 07:06:35;;;;;;;;;;;0.90;99.90;;;;;;4927865;29;20067;-69
2023/03/08 07:09:01;;;;;;;;;;;0.90;99.90;;;;;;4927460;29;19962;-66
2023/03/08 07:11:30;;;;;;;;;;;1.00;99.90;;;;;;4926457;29;19927;-69
2023/03/08 07:13:57;;;;;;;;;;;1.00;99.90;;;;;;4926814;29;19935;-73
2023/03/08 07:16:23;;;;;;;;;;;1.00;99.90;;;;;;4925739;29;19981;-74
2023/03/08 07:18:50;;;;;;;;;;;1.00;99.90;;;;;;4927846;29;20354;-69
2023/03/08 07:21:16;;;;;;;;;;;1.00;99.90;;;;;;4931474;29;19966;-69
2023/03/08 07:23:44;;;;;;;;;;;1.00;99.90;;;;;;4934943;29;20029;-68
2023/03/08 07:26:11;;;;;;;;;;;1.10;99.90;;;;;;4933201;29;19966;-69
2023/03/08 07:28:38;;;;;;;;;;;1.10;99.90;;;;;;4933450;29;19927;-69
2023/03/08 07:31:05;;;;;;;;;;;1.10;99.90;;;;;;4924798;29;20318;-67
2023/03/08 07:33:31;;;;;;;;;;;1.20;99.90;;;;;;4928659;29;20021;-69
2023/03/08 07:36:00;;;;;;;;;;;1.20;99.90;;;;;;4928275;29;19970;-68
2023/03/08 07:38:26;;;;;;;;;;;1.20;99.90;;;;;;4931369;29;20016;-66
2023/03/08 07:40:55;;;;;;;;;;;1.30;99.90;;;;;;4932959;29;20383;-69
2023/03/08 07:43:22;;;;;;;;;;;1.30;99.90;;;;;;4930205;29;19934;-70
2023/03/08 07:45:53;;;;;;;;;;;1.40;99.90;;;;;;4931013;29;20386;-67
2023/03/08 07:48:20;;;;;;;;;;;1.40;99.90;;;;;;4924985;29;19966;-69
2023/03/08 07:50:47;;;;;;;;;;;1.50;99.90;;;;;;4937026;29;19938;-69
2023/03/08 07:53:14;;;;;;;;;;;1.50;99.90;;;;;;4925743;29;19933;-68
2023/03/08 07:55:41;;;;;;;;;;;1.60;99.90;;;;;;4931434;29;19931;-67
2023/03/08 07:58:09;;;;;;;;;;;1.60;99.90;;;;;;4929951;29;20022;-69
2023/03/08 08:00:36;;;;;;;;;;;1.70;99.90;;;;;;4930366;29;20025;-69
2023/03/08 08:03:02;;;;;;;;;;;1.70;99.90;;;;;;4926234;29;20417;-69
2023/03/08 08:05:29;;;;;;;;;;;1.70;99.90;;;;;;4921638;29;19935;-70
2023/03/08 08:07:56;;;;;;;;;;;1.80;99.90;;;;;;4925833;29;19989;-68
2023/03/08 08:10:22;;;;;;;;;;;1.80;99.90;;;;;;4920996;29;20386;-69
2023/03/08 08:12:49;;;;;;;;;;;1.90;99.90;;;;;;4928907;29;19962;-68
2023/03/08 08:15:18;;;;;;;;;;;2.00;99.90;;;;;;4931789;29;20401;-69
2023/03/08 08:17:44;;;;;;;;;;;2.10;99.90;;;;;;4924007;29;20022;-68
2023/03/08 08:20:11;;;;;;;;;;;2.20;99.90;;;;;;4929441;29;19934;-68
2023/03/08 08:22:38;;;;;;;;;;;2.40;99.90;;;;;;4925997;29;20332;-70
2023/03/08 08:25:05;;;;;;;;;;;2.70;99.90;;;;;;4935422;29;19970;-69
2023/03/08 08:27:32;;;;;;;;;;;2.90;99.90;;;;;;4944133;28;20025;-69
2023/03/08 08:29:59;;;;;;;;;;;3.10;99.90;;;;;;4944561;29;19927;-69
2023/03/08 08:32:27;;;;;;;;;;;3.30;99.90;;;;;;4941349;29;19927;-68
2023/03/08 08:34:53;;;;;;;;;;;3.40;99.90;;;;;;4947115;29;19979;-69
2023/03/08 08:37:20;;;;;;;;;;;3.50;99.90;;;;;;4937644;29;19970;-68
2023/03/08 08:39:47;;;;;;;;;;;3.50;99.90;;;;;;4942519;29;20059;-68
2023/03/08 08:42:13;;;;;;;;;;;3.40;99.90;;;;;;4942411;29;20018;-68
2023/03/08 08:44:40;;;;;;;;;;;3.40;99.90;;;;;;4939419;29;19927;-69
2023/03/08 08:47:07;;;;;;;;;;;3.40;99.90;;;;;;4934298;29;19927;-67
2023/03/08 08:49:35;;;;;;;;;;;3.40;99.90;;;;;;4937477;29;19931;-70
2023/03/08 08:52:02;;;;;;;;;;;3.50;99.90;;;;;;4933551;29;19982;-68
2023/03/08 08:54:29;;;;;;;;;;;3.60;99.90;;;;;;4942728;29;19927;-68
2023/03/08 08:56:55;;;;;;;;;;;3.50;99.90;;;;;;4946573;28;19927;-69
2023/03/08 08:59:22;;;;;;;;;;;3.40;99.90;;;;;;4941986;28;19927;-69
2023/03/08 09:01:48;;;;;;;;;;;3.40;99.90;;;;;;4941379;29;19974;-69
2023/03/08 09:04:16;;;;;;;;;;;3.30;99.90;;;;;;4958276;28;19962;-69
2023/03/08 09:06:44;;;;;;;;;;;3.10;99.90;;;;;;4931811;29;19927;-70
2023/03/08 09:09:11;;;;;;;;;;;3.10;99.90;;;;;;4948947;28;19970;-70
2023/03/08 09:11:37;;;;;;;;;;;3.10;99.90;;;;;;4929834;29;19930;-69
2023/03/08 09:14:04;;;;;;;;;;;3.20;99.90;;;;;;4930021;29;19935;-67
2023/03/08 09:16:31;;;;;;;;;;;3.20;99.90;;;;;;4925521;29;20489;-69
2023/03/08 09:18:59;;;;;;;;;;;3.20;99.90;;;;;;4925418;29;19930;-69
2023/03/08 09:21:26;;;;;;;;;;;3.40;99.90;;;;;;4924611;29;19934;-68
2023/03/08 09:23:55;;;;;;;;;;;3.50;99.90;;;;;;4951215;28;20419;-70
2023/03/08 09:26:21;;;;;;;;;;;3.50;99.90;;;;;;4924115;29;19927;-69
2023/03/08 09:28:48;;;;;;;;;;;3.50;99.90;;;;;;4961144;28;19984;-69
2023/03/08 09:31:16;;;;;;;;;;;3.50;99.90;;;;;;4921520;29;20394;-69
2023/03/08 09:33:44;;;;;;;;;;;3.40;99.90;;;;;;4930885;29;19934;-69
2023/03/08 09:36:11;;;;;;;;;;;3.40;99.90;;;;;;4928006;29;19927;-68
2023/03/08 09:38:39;;;;;;;;;;;3.50;99.90;;;;;;4927320;29;19989;-69
2023/03/08 09:41:13;;;;;;;;;;;3.60;99.90;;;;;;4922473;29;19931;-68
2023/03/08 09:43:43;;;;;;;;;;;3.70;99.90;;;;;;4928923;29;19974;-68
2023/03/08 09:46:12;;;;;;;;;;;3.70;99.90;;;;;;4942921;28;19934;-69
2023/03/08 09:48:43;;;;;;;;;;;3.70;99.90;;;;;;4933108;29;19931;-69
2023/03/08 09:51:11;;;;;;;;;;;3.80;99.90;;;;;;4925717;29;19927;-69
2023/03/08 09:53:39;;;;;;;;;;;3.90;99.90;;;;;;4931341;29;19931;-68
2023/03/08 09:56:11;;;;;;;;;;;3.90;99.90;;;;;;4922099;29;19935;-69
2023/03/08 09:58:40;;;;;;;;;;;3.80;99.90;;;;;;4927643;29;19931;-69
2023/03/08 10:01:19;;;;;;;;;;;3.80;99.90;;;;;;4934935;29;20021;-69
2023/03/08 10:04:07;;;;;;;;;;;3.90;99.90;;;;;;4928783;29;19931;-69
2023/03/08 10:06:37;;;;;;;;;;;3.90;99.90;;;;;;4923646;29;19935;-67
2023/03/08 10:09:08;;;;;;;;;;;4.30;99.90;;;;;;4928026;29;19934;-68
2023/03/08 10:11:37;;;;;;;;;;;4.60;99.90;;;;;;4925560;29;19928;-69
2023/03/08 10:14:11;;;;;;;;;;;4.70;99.90;;;;;;4929527;29;19934;-69
2023/03/08 10:16:40;;;;;;;;;;;4.90;99.90;;;;;;4935956;29;19934;-69
2023/03/08 10:19:13;;;;;;;;;;;4.80;99.90;;;;;;4934460;29;20441;-69
2023/03/08 10:21:41;;;;;;;;;;;4.90;99.90;;;;;;4929279;29;20375;-69
2023/03/08 10:24:13;;;;;;;;;;;5.00;99.90;;;;;;4933665;29;19930;-72
2023/03/08 10:26:41;;;;;;;;;;;5.00;99.90;;;;;;4934947;29;19931;-70
2023/03/08 10:29:10;;;;;;;;;;;5.00;99.90;;;;;;4931810;29;20419;-69
2023/03/08 10:31:37;;;;;;;;;;;4.70;99.90;;;;;;4923454;29;19931;-68
2023/03/08 10:34:11;;;;;;;;;;;4.60;99.90;;;;;;4936196;29;19999;-68
2023/03/08 10:36:47;;;;;;;;;;;4.50;99.90;;;;;;4932926;29;19974;-69
2023/03/08 10:39:14;;;;;;;;;;;4.50;99.90;;;;;;4935550;29;20288;-68
2023/03/08 10:41:42;;;;;;;;;;;4.50;99.90;;;;;;4927497;29;19958;-69
2023/03/08 10:44:32;;;;;;;;;;;4.50;99.90;;;;;;4929950;29;19938;-69
2023/03/08 10:46:59;;;;;;;;;;;4.50;99.90;;;;;;4928647;29;19931;-70
2023/03/08 10:49:26;;;;;;;;;;;4.60;99.90;;;;;;4952467;28;19930;-70
2023/03/08 10:51:57;;;;;;;;;;;4.60;99.90;;;;;;4929778;29;19928;-70
2023/03/08 10:54:24;;;;;;;;;;;4.60;99.90;;;;;;4930518;29;19926;-70
2023/03/08 10:56:52;;;;;;;;;;;4.70;99.90;;;;;;4928020;29;19927;-68
2023/03/08 10:59:28;;;;;;;;;;;4.80;99.90;;;;;;4935596;29;19938;-71
2023/03/08 11:01:57;;;;;;;;;;;4.90;99.90;;;;;;4928756;29;20315;-70
2023/03/08 11:04:24;;;;;;;;;;;5.10;99.90;;;;;;4929525;29;19927;-70
2023/03/08 11:06:51;;;;;;;;;;;5.20;99.90;;;;;;4937068;29;20366;-70
2023/03/08 11:09:19;;;;;;;;;;;5.10;99.90;;;;;;4936577;29;19932;-70
2023/03/08 11:11:46;;;;;;;;;;;5.30;99.90;;;;;;4934915;29;19933;-70
2023/03/08 11:14:14;;;;;;;;;;;5.30;99.90;;;;;;4930082;29;19931;-69
2023/03/08 11:17:00;;;;;;;;;;;5.10;99.90;;;;;;4929602;29;19939;-69
2023/03/08 11:19:32;;;;;;;;;;;4.90;99.90;;;;;;4926292;29;19943;-69
2023/03/08 11:22:03;;;;;;;;;;;4.80;99.90;;;;;;4930256;29;20299;-69
2023/03/08 11:24:35;;;;;;;;;;;4.60;99.90;;;;;;4930159;29;19927;-69
2023/03/08 11:27:09;;;;;;;;;;;4.70;99.90;;;;;;4934018;28;19927;-68
2023/03/08 11:29:42;;;;;;;;;;;4.70;99.90;;;;;;4926641;29;20466;-68
2023/03/08 11:32:17;;;;;;;;;;;4.60;99.90;;;;;;4930546;29;20021;-69
2023/03/08 11:34:56;;;;;;;;;;;4.60;99.90;;;;;;4926491;29;20026;-69
2023/03/08 11:37:26;;;;;;;;;;;4.60;99.90;;;;;;4929392;29;20390;-68
2023/03/08 11:39:54;;;;;;;;;;;4.60;99.90;;;;;;4931477;29;19927;-69
2023/03/08 11:42:25;;;;;;;;;;;4.50;99.90;;;;;;4935246;29;19927;-68
2023/03/08 11:44:57;;;;;;;;;;;4.50;99.90;;;;;;4929250;29;19927;-69
2023/03/08 11:47:43;;;;;;;;;;;4.50;99.90;;;;;;4926111;29;20357;-70
2023/03/08 11:50:14;;;;;;;;;;;4.50;99.90;;;;;;4928737;29;20019;-69
2023/03/08 11:52:45;;;;;;;;;;;4.60;99.90;;;;;;4927922;29;19927;-69
2023/03/08 11:55:20;;;;;;;;;;;4.60;99.90;;;;;;4923420;29;19927;-68
2023/03/08 11:57:51;;;;;;;;;;;4.60;99.90;;;;;;4933672;29;20465;-69
2023/03/08 12:00:22;;;;;;;;;;;4.70;99.90;;;;;;4930834;29;19927;-69
2023/03/08 12:02:50;;;;;;;;;;;4.70;99.90;;;;;;4931899;29;20465;-70
2023/03/08 12:05:24;;;;;;;;;;;4.70;99.90;;;;;;4926406;29;19936;-69
2023/03/08 12:07:54;;;;;;;;;;;4.70;99.90;;;;;;4930236;29;19938;-69
2023/03/08 12:10:22;;;;;;;;;;;4.90;99.90;;;;;;4930190;29;19967;-68
2023/03/08 12:12:51;;;;;;;;;;;5.10;99.90;;;;;;4929556;29;19931;-70
2023/03/08 12:15:22;;;;;;;;;;;5.20;99.90;;;;;;4927135;29;19931;-70
2023/03/08 12:17:53;;;;;;;;;;;5.30;99.90;;;;;;4932763;29;20030;-69
2023/03/08 12:20:21;;;;;;;;;;;5.40;99.90;;;;;;4930865;29;19979;-69
2023/03/08 12:22:51;;;;;;;;;;;5.40;99.90;;;;;;4933414;29;19927;-69
2023/03/08 12:25:22;;;;;;;;;;;5.40;99.90;;;;;;4924710;29;19927;-70
2023/03/08 12:27:51;;;;;;;;;;;5.30;99.90;;;;;;4927978;29;19969;-69
2023/03/08 12:30:23;;;;;;;;;;;5.30;99.90;;;;;;4929175;29;19928;-69
2023/03/08 12:32:53;;;;;;;;;;;5.40;99.90;;;;;;4927596;29;20368;-69
2023/03/08 12:35:28;;;;;;;;;;;5.30;99.90;;;;;;4928835;29;19934;-68
2023/03/08 12:37:55;;;;;;;;;;;5.30;99.90;;;;;;4926588;29;19934;-69
2023/03/08 12:40:27;;;;;;;;;;;5.30;99.90;;;;;;4953046;28;19927;-69
2023/03/08 12:43:03;;;;;;;;;;;5.20;99.90;;;;;;4933109;29;19926;-68
2023/03/08 12:45:30;;;;;;;;;;;5.40;99.90;;;;;;4929801;29;19927;-69
2023/03/08 12:48:01;;;;;;;;;;;5.40;99.90;;;;;;4929073;29;20422;-69
2023/03/08 12:50:28;;;;;;;;;;;5.40;99.90;;;;;;4927412;29;20021;-70
2023/03/08 12:52:57;;;;;;;;;;;5.30;99.90;;;;;;4928816;29;19987;-68
2023/03/08 12:55:30;;;;;;;;;;;5.20;99.90;;;;;;4925417;29;20338;-69
2023/03/08 12:57:57;;;;;;;;;;;5.10;99.90;;;;;;4927176;29;19966;-70
2023/03/08 13:00:26;;;;;;;;;;;5.00;99.90;;;;;;4927951;29;19927;-68
2023/03/08 13:03:00;;;;;;;;;;;5.00;99.90;;;;;;4927938;29;20438;-69
2023/03/08 13:05:29;;;;;;;;;;;4.80;99.90;;;;;;4945944;28;20390;-69
2023/03/08 13:08:04;;;;;;;;;;;4.80;99.90;;;;;;4928309;29;19926;-69
2023/03/08 13:10:32;;;;;;;;;;;4.80;99.90;;;;;;4931530;29;20330;-69
2023/03/08 13:13:03;;;;;;;;;;;4.80;99.90;;;;;;4930168;29;19934;-67
2023/03/08 13:15:30;;;;;;;;;;;4.80;99.90;;;;;;4930091;29;19987;-69
2023/03/08 13:18:05;;;;;;;;;;;5.00;99.90;;;;;;4929509;29;19934;-67
2023/03/08 13:20:48;;;;;;;;;;;5.10;99.90;;;;;;4923725;29;19930;-68
2023/03/08 13:23:20;;;;;;;;;;;5.20;99.90;;;;;;4931805;29;19928;-67
2023/03/08 13:25:54;;;;;;;;;;;5.20;99.90;;;;;;4957823;28;19926;-69
2023/03/08 13:28:21;;;;;;;;;;;5.30;99.90;;;;;;4925589;29;19927;-69
2023/03/08 13:30:50;;;;;;;;;;;5.50;99.90;;;;;;4929831;29;19930;-70
2023/03/08 13:33:20;;;;;;;;;;;5.60;99.90;;;;;;4926403;29;20022;-70
2023/03/08 13:35:54;;;;;;;;;;;5.60;99.90;;;;;;4931489;29;19927;-69
2023/03/08 13:38:22;;;;;;;;;;;5.50;99.90;;;;;;4927901;29;19927;-69
2023/03/08 13:40:53;;;;;;;;;;;5.40;99.90;;;;;;4936146;29;19926;-76
2023/03/08 13:43:20;;;;;;;;;;;5.40;99.90;;;;;;4928788;29;20101;-69
2023/03/08 13:45:48;;;;;;;;;;;5.40;99.90;;;;;;4931582;29;19927;-70
2023/03/08 13:48:15;;;;;;;;;;;5.40;99.90;;;;;;4924945;29;19926;-67
2023/03/08 13:50:44;;;;;;;;;;;5.50;99.90;;;;;;4931717;29;19927;-69
2023/03/08 13:53:14;;;;;;;;;;;5.50;99.90;;;;;;4933610;29;19926;-68
2023/03/08 13:55:43;;;;;;;;;;;5.60;99.90;;;;;;4931827;29;20366;-69
2023/03/08 13:58:15;;;;;;;;;;;5.60;99.90;;;;;;4934226;29;20358;-70
2023/03/08 14:00:41;;;;;;;;;;;5.70;99.90;;;;;;4932339;29;20333;-69
2023/03/08 14:03:18;;;;;;;;;;;5.70;99.90;;;;;;4930894;29;19927;-70
2023/03/08 14:05:47;;;;;;;;;;;5.70;99.90;;;;;;4932061;29;19927;-69
2023/03/08 14:08:18;;;;;;;;;;;5.70;99.90;;;;;;4930904;29;20306;-70
2023/03/08 14:10:47;;;;;;;;;;;5.70;99.90;;;;;;4954901;28;19927;-70
2023/03/08 14:13:15;;;;;;;;;;;5.70;99.90;;;;;;4933295;29;19927;-69
2023/03/08 14:15:48;;;;;;;;;;;5.70;99.90;;;;;;4933594;29;19942;-69
2023/03/08 14:18:20;;;;;;;;;;;5.60;99.90;;;;;;4932142;29;19927;-68
2023/03/08 14:21:00;;;;;;;;;;;5.50;99.90;;;;;;4933615;29;19978;-69
2023/03/08 14:23:27;;;;;;;;;;;5.40;99.90;;;;;;4940690;29;19927;-70
2023/03/08 14:25:56;;;;;;;;;;;5.40;99.90;;;;;;4935495;29;19927;-71
2023/03/08 14:28:36;;;;;;;;;;;5.30;99.90;;;;;;4931759;29;20025;-72
2023/03/08 14:31:03;;;;;;;;;;;5.20;99.90;;;;;;4953478;28;19934;-73
2023/03/08 14:33:29;;;;;;;;;;;5.20;99.90;;;;;;4929472;29;19966;-71
2023/03/08 14:35:58;;;;;;;;;;;5.20;99.90;;;;;;4933401;29;19977;-73
2023/03/08 14:38:28;;;;;;;;;;;5.20;99.90;;;;;;4938868;29;19927;-67
2023/03/08 14:40:55;;;;;;;;;;;5.20;99.90;;;;;;4936555;29;20018;-67